sensor_id;sensor_type;location;lat;lon;timestamp;pressure;altitude;pressure_sealevel;temperature;humidity
3434;BME280;1730;41.932;25.548;2022-07-01T00:01:40;98991.09;;;21.13;100.00
3434;BME280;1730;41.932;25.548;2022-07-01T00:04:06;99114.09;;;21.64;100.00
3434;BME280;1730;41.932;25.548;2022-07-01T00:06:33;99068.88;;;21.19;100.00
3434;BME280;1730;41.932;25.548;2022-07-01T00:08:59;99108.03;;;21.44;100.00
3434;BME280;1730;41.932;25.548;2022-07-01T00:11:25;99071.97;;;21.04;100.00
3434;BME280;1730;41.932;25.548;2022-07-01T00:13:51;99076.53;;;20.92;100.00
3434;BME280;1730;41.932;25.548;2022-07-01T00:16:17;99124.34;;;21.21;100.00
3434;BME280;1730;41.932;25.548;2022-07-01T00:18:43;98920.41;;;19.99;100.00
3434;BME280;1730;41.932;25.548;2022-07-01T00:21:08;99067.31;;;20.86;100.00
3434;BME280;1730;41.932;25.548;2022-07-01T00:23:34;98986.34;;;20.47;100.00
3434;BME280;1730;41.932;25.548;2022-07-01T00:26:00;99113.16;;;21.22;100.00
3434;BME280;1730;41.932;25.548;2022-07-01T00:28:26;99011.53;;;20.56;100.00
3434;BME280;1730;41.932;25.548;2022-07-01T00:30:52;98968.12;;;20.35;100.00
3434;BME280;1730;41.932;25.548;2022-07-01T00:33:17;99105.59;;;21.18;100.00
3434;BME280;1730;41.932;25.548;2022-07-01T00:35:43;99077.66;;;20.84;100.00
3434;BME280;1730;41.932;25.548;2022-07-01T00:38:09;99113.06;;;20.86;100.00
3434;BME280;1730;41.932;25.548;2022-07-01T00:40:35;99114.88;;;20.49;100.00
3434;BME280;1730;41.932;25.548;2022-07-01T00:43:00;99133.16;;;20.55;100.00
3434;BME280;1730;41.932;25.548;2022-07-01T00:45:26;99133.63;;;20.45;100.00
3434;BME280;1730;41.932;25.548;2022-07-01T00:47:52;98811.84;;;18.50;100.00
3434;BME280;1730;41.932;25.548;2022-07-01T00:50:17;99107.91;;;20.15;100.00
3434;BME280;1730;41.932;25.548;2022-07-01T00:52:44;99119.13;;;20.07;100.00
3434;BME280;1730;41.932;25.548;2022-07-01T00:55:12;99157.06;;;20.03;100.00
3434;BME280;1730;41.932;25.548;2022-07-01T00:57:39;99132.91;;;19.49;100.00
3434;BME280;1730;41.932;25.548;2022-07-01T01:00:09;98767.22;;;16.75;100.00
3434;BME280;1730;41.932;25.548;2022-07-01T01:02:36;99209.28;;;19.18;100.00
3434;BME280;1730;41.932;25.548;2022-07-01T01:05:05;99226.75;;;19.10;100.00
3434;BME280;1730;41.932;25.548;2022-07-01T01:07:32;99205.56;;;18.73;100.00
3434;BME280;1730;41.932;25.548;2022-07-01T01:09:59;99168.31;;;18.45;100.00
3434;BME280;1730;41.932;25.548;2022-07-01T01:12:25;99281.84;;;19.01;100.00
3434;BME280;1730;41.932;25.548;2022-07-01T01:14:51;99313.19;;;18.98;100.00
3434;BME280;1730;41.932;25.548;2022-07-01T01:17:18;99279.94;;;18.81;100.00
3434;BME280;1730;41.932;25.548;2022-07-01T01:19:44;99294.06;;;19.11;100.00
3434;BME280;1730;41.932;25.548;2022-07-01T01:22:11;99276.16;;;19.09;100.00
3434;BME280;1730;41.932;25.548;2022-07-01T01:24:40;99251.78;;;19.14;100.00
3434;BME280;1730;41.932;25.548;2022-07-01T01:27:07;99243.59;;;19.01;100.00
3434;BME280;1730;41.932;25.548;2022-07-01T01:29:34;99244.22;;;18.89;100.00
3434;BME280;1730;41.932;25.548;2022-07-01T01:32:00;99124.53;;;17.99;100.00
3434;BME280;1730;41.932;25.548;2022-07-01T01:34:26;99289.00;;;18.82;100.00
3434;BME280;1730;41.932;25.548;2022-07-01T01:36:52;99249.47;;;18.78;100.00
3434;BME280;1730;41.932;25.548;2022-07-01T01:39:18;99245.25;;;18.75;100.00
3434;BME280;1730;41.932;25.548;2022-07-01T01:41:44;99237.50;;;18.72;100.00
3434;BME280;1730;41.932;25.548;2022-07-01T01:44:10;99236.88;;;18.77;100.00
3434;BME280;1730;41.932;25.548;2022-07-01T01:46:36;99231.63;;;18.82;100.00
3434;BME280;1730;41.932;25.548;2022-07-01T01:49:03;99233.06;;;18.84;100.00
3434;BME280;1730;41.932;25.548;2022-07-01T01:51:29;99077.25;;;17.73;100.00
3434;BME280;1730;41.932;25.548;2022-07-01T01:53:55;99248.53;;;18.44;100.00
3434;BME280;1730;41.932;25.548;2022-07-01T01:56:21;99260.31;;;18.45;100.00
3434;BME280;1730;41.932;25.548;2022-07-01T01:58:47;99249.06;;;18.14;100.00
3434;BME280;1730;41.932;25.548;2022-07-01T02:01:13;99289.03;;;18.28;100.00
3434;BME280;1730;41.932;25.548;2022-07-01T02:03:41;99296.41;;;18.40;100.00
3434;BME280;1730;41.932;25.548;2022-07-01T02:06:08;99304.97;;;18.31;100.00
3434;BME280;1730;41.932;25.548;2022-07-01T02:08:36;99307.72;;;18.31;100.00
3434;BME280;1730;41.932;25.548;2022-07-01T02:11:02;99335.06;;;18.44;100.00
3434;BME280;1730;41.932;25.548;2022-07-01T02:13:28;99307.25;;;18.75;100.00
3434;BME280;1730;41.932;25.548;2022-07-01T02:15:53;99289.16;;;18.67;100.00
3434;BME280;1730;41.932;25.548;2022-07-01T02:18:19;98712.44;;;15.35;100.00
3434;BME280;1730;41.932;25.548;2022-07-01T02:20:44;99198.50;;;18.24;100.00
3434;BME280;1730;41.932;25.548;2022-07-01T02:23:10;99098.69;;;17.76;100.00
3434;BME280;1730;41.932;25.548;2022-07-01T02:25:36;98899.38;;;16.71;100.00
3434;BME280;1730;41.932;25.548;2022-07-01T02:28:02;99252.63;;;19.01;100.00
3434;BME280;1730;41.932;25.548;2022-07-01T02:30:29;99236.84;;;18.97;100.00
3434;BME280;1730;41.932;25.548;2022-07-01T02:32:56;99101.03;;;17.85;100.00
3434;BME280;1730;41.932;25.548;2022-07-01T02:35:22;99248.63;;;18.84;100.00
3434;BME280;1730;41.932;25.548;2022-07-01T02:37:47;99119.53;;;18.10;100.00
3434;BME280;1730;41.932;25.548;2022-07-01T02:40:13;99150.62;;;18.15;100.00
3434;BME280;1730;41.932;25.548;2022-07-01T02:42:39;98861.50;;;16.35;100.00
3434;BME280;1730;41.932;25.548;2022-07-01T02:45:06;99255.59;;;18.86;100.00
3434;BME280;1730;41.932;25.548;2022-07-01T02:47:39;99275.50;;;18.74;100.00
3434;BME280;1730;41.932;25.548;2022-07-01T02:50:07;99258.31;;;18.73;100.00
3434;BME280;1730;41.932;25.548;2022-07-01T02:52:34;99251.31;;;18.58;100.00
3434;BME280;1730;41.932;25.548;2022-07-01T02:55:05;98994.28;;;16.46;100.00
3434;BME280;1730;41.932;25.548;2022-07-01T02:57:31;99296.34;;;18.21;100.00
3434;BME280;1730;41.932;25.548;2022-07-01T02:59:57;99195.88;;;17.49;100.00
3434;BME280;1730;41.932;25.548;2022-07-01T03:02:23;99152.75;;;17.25;100.00
3434;BME280;1730;41.932;25.548;2022-07-01T03:04:50;98988.81;;;16.39;100.00
3434;BME280;1730;41.932;25.548;2022-07-01T03:07:17;99333.19;;;18.44;100.00
3434;BME280;1730;41.932;25.548;2022-07-01T03:09:43;99298.56;;;18.52;100.00
3434;BME280;1730;41.932;25.548;2022-07-01T03:12:10;99276.97;;;18.63;100.00
3434;BME280;1730;41.932;25.548;2022-07-01T03:17:25;99258.09;;;18.81;100.00
3434;BME280;1730;41.932;25.548;2022-07-01T03:19:51;99211.19;;;18.52;100.00
3434;BME280;1730;41.932;25.548;2022-07-01T03:22:18;99255.97;;;18.64;100.00
3434;BME280;1730;41.932;25.548;2022-07-01T03:24:44;99263.31;;;18.70;100.00
3434;BME280;1730;41.932;25.548;2022-07-01T03:27:10;99260.59;;;18.76;100.00
3434;BME280;1730;41.932;25.548;2022-07-01T03:29:35;99255.75;;;18.72;100.00
3434;BME280;1730;41.932;25.548;2022-07-01T03:32:01;99233.19;;;18.43;100.00
3434;BME280;1730;41.932;25.548;2022-07-01T03:34:27;99243.59;;;19.01;100.00
3434;BME280;1730;41.932;25.548;2022-07-01T03:36:53;99237.91;;;19.02;100.00
3434;BME280;1730;41.932;25.548;2022-07-01T03:39:19;99227.19;;;19.20;100.00
3434;BME280;1730;41.932;25.548;2022-07-01T03:41:44;98931.88;;;18.12;100.00
3434;BME280;1730;41.932;25.548;2022-07-01T03:44:10;98990.06;;;18.96;100.00
3434;BME280;1730;41.932;25.548;2022-07-01T03:46:35;99208.56;;;20.19;100.00
3434;BME280;1730;41.932;25.548;2022-07-01T03:49:02;99159.88;;;20.59;100.00
3434;BME280;1730;41.932;25.548;2022-07-01T03:51:30;99147.31;;;20.77;100.00
3434;BME280;1730;41.932;25.548;2022-07-01T03:53:55;99131.72;;;21.20;100.00
3434;BME280;1730;41.932;25.548;2022-07-01T03:56:39;99117.69;;;21.65;100.00
3434;BME280;1730;41.932;25.548;2022-07-01T03:59:05;99106.31;;;21.79;100.00
3434;BME280;1730;41.932;25.548;2022-07-01T04:01:30;99082.56;;;22.03;100.00
3434;BME280;1730;41.932;25.548;2022-07-01T04:03:56;99063.22;;;22.63;100.00
3434;BME280;1730;41.932;25.548;2022-07-01T04:06:22;99073.03;;;22.82;100.00
3434;BME280;1730;41.932;25.548;2022-07-01T04:08:48;98916.72;;;22.16;100.00
3434;BME280;1730;41.932;25.548;2022-07-01T04:11:15;99064.34;;;23.36;100.00
3434;BME280;1730;41.932;25.548;2022-07-01T04:13:41;98921.47;;;22.43;100.00
3434;BME280;1730;41.932;25.548;2022-07-01T04:16:12;99059.41;;;23.62;100.00
3434;BME280;1730;41.932;25.548;2022-07-01T04:18:38;98864.56;;;22.67;100.00
3434;BME280;1730;41.932;25.548;2022-07-01T04:21:03;98941.84;;;23.34;100.00
3434;BME280;1730;41.932;25.548;2022-07-01T04:23:47;99048.56;;;24.79;100.00
3434;BME280;1730;41.932;25.548;2022-07-01T04:26:19;99028.56;;;24.88;100.00
3434;BME280;1730;41.932;25.548;2022-07-01T04:28:45;99042.97;;;24.90;100.00
3434;BME280;1730;41.932;25.548;2022-07-01T04:31:11;99056.06;;;25.00;100.00
3434;BME280;1730;41.932;25.548;2022-07-01T04:33:37;98844.72;;;23.84;100.00
3434;BME280;1730;41.932;25.548;2022-07-01T04:36:03;98721.37;;;23.86;100.00
3434;BME280;1730;41.932;25.548;2022-07-01T04:38:29;99025.63;;;26.72;100.00
3434;BME280;1730;41.932;25.548;2022-07-01T04:40:54;99047.22;;;27.07;100.00
3434;BME280;1730;41.932;25.548;2022-07-01T04:43:38;99029.31;;;26.83;100.00
3434;BME280;1730;41.932;25.548;2022-07-01T04:46:04;99040.69;;;26.86;100.00
3434;BME280;1730;41.932;25.548;2022-07-01T04:48:29;99032.53;;;27.69;100.00
3434;BME280;1730;41.932;25.548;2022-07-01T04:50:55;98936.00;;;27.30;100.00
3434;BME280;1730;41.932;25.548;2022-07-01T04:53:20;99034.66;;;28.70;100.00
3434;BME280;1730;41.932;25.548;2022-07-01T04:55:46;98993.84;;;28.70;96.69
3434;BME280;1730;41.932;25.548;2022-07-01T04:58:12;99044.38;;;28.77;98.54
3434;BME280;1730;41.932;25.548;2022-07-01T05:00:38;98960.00;;;28.07;100.00
3434;BME280;1730;41.932;25.548;2022-07-01T05:03:03;98998.84;;;28.38;99.46
3434;BME280;1730;41.932;25.548;2022-07-01T05:05:29;99047.41;;;29.75;87.27
3434;BME280;1730;41.932;25.548;2022-07-01T05:07:55;98955.94;;;29.30;88.67
3434;BME280;1730;41.932;25.548;2022-07-01T05:10:20;99025.31;;;29.50;89.34
3434;BME280;1730;41.932;25.548;2022-07-01T05:12:46;99047.75;;;30.18;84.27
3434;BME280;1730;41.932;25.548;2022-07-01T05:15:12;99065.81;;;30.20;85.81
3434;BME280;1730;41.932;25.548;2022-07-01T05:17:37;99026.47;;;30.71;78.87
3434;BME280;1730;41.932;25.548;2022-07-01T05:20:21;99009.56;;;30.91;72.28
3434;BME280;1730;41.932;25.548;2022-07-01T05:23:06;99045.03;;;30.80;76.18
3434;BME280;1730;41.932;25.548;2022-07-01T05:25:32;98909.59;;;30.03;75.00
3434;BME280;1730;41.932;25.548;2022-07-01T05:27:57;99031.44;;;31.31;71.01
3434;BME280;1730;41.932;25.548;2022-07-01T05:30:23;98962.13;;;30.10;74.94
3434;BME280;1730;41.932;25.548;2022-07-01T05:32:49;99043.91;;;31.63;69.93
3434;BME280;1730;41.932;25.548;2022-07-01T05:35:14;98839.03;;;29.94;70.54
3434;BME280;1730;41.932;25.548;2022-07-01T05:37:41;99020.91;;;31.71;67.29
3434;BME280;1730;41.932;25.548;2022-07-01T05:40:07;99039.19;;;32.01;67.26
3434;BME280;1730;41.932;25.548;2022-07-01T05:42:33;99047.97;;;31.70;69.53
3434;BME280;1730;41.932;25.548;2022-07-01T05:44:59;99043.75;;;31.73;80.69
3434;BME280;1730;41.932;25.548;2022-07-01T05:47:24;99044.66;;;31.68;72.36
3434;BME280;1730;41.932;25.548;2022-07-01T05:49:50;99040.84;;;32.39;72.30
3434;BME280;1730;41.932;25.548;2022-07-01T05:52:15;99041.53;;;31.94;67.00
3434;BME280;1730;41.932;25.548;2022-07-01T05:54:41;99028.47;;;32.08;67.54
3434;BME280;1730;41.932;25.548;2022-07-01T05:57:06;99041.41;;;32.23;64.81
3434;BME280;1730;41.932;25.548;2022-07-01T05:59:32;99048.06;;;32.78;67.12
3434;BME280;1730;41.932;25.548;2022-07-01T06:01:58;99062.50;;;32.66;66.66
3434;BME280;1730;41.932;25.548;2022-07-01T06:04:23;99058.50;;;32.72;66.11
3434;BME280;1730;41.932;25.548;2022-07-01T06:06:49;99064.37;;;33.03;62.08
3434;BME280;1730;41.932;25.548;2022-07-01T06:09:14;99068.66;;;32.82;60.77
3434;BME280;1730;41.932;25.548;2022-07-01T06:11:40;99066.72;;;32.82;61.03
3434;BME280;1730;41.932;25.548;2022-07-01T06:14:05;99062.25;;;32.81;59.72
3434;BME280;1730;41.932;25.548;2022-07-01T06:16:31;99055.56;;;33.09;59.04
3434;BME280;1730;41.932;25.548;2022-07-01T06:18:56;99017.94;;;33.34;58.47
3434;BME280;1730;41.932;25.548;2022-07-01T06:21:21;99050.97;;;33.46;54.53
3434;BME280;1730;41.932;25.548;2022-07-01T06:23:47;99055.44;;;33.47;57.90
3434;BME280;1730;41.932;25.548;2022-07-01T06:26:12;99039.69;;;33.24;56.22
3434;BME280;1730;41.932;25.548;2022-07-01T06:28:38;99062.69;;;33.75;53.28
3434;BME280;1730;41.932;25.548;2022-07-01T06:31:04;99054.25;;;34.03;55.90
3434;BME280;1730;41.932;25.548;2022-07-01T06:33:30;99058.16;;;34.15;50.22
3434;BME280;1730;41.932;25.548;2022-07-01T06:35:57;99057.84;;;34.30;49.46
3434;BME280;1730;41.932;25.548;2022-07-01T06:38:23;99058.47;;;34.50;48.98
3434;BME280;1730;41.932;25.548;2022-07-01T06:40:49;99064.81;;;34.19;50.73
3434;BME280;1730;41.932;25.548;2022-07-01T06:43:34;99024.03;;;33.77;51.71
3434;BME280;1730;41.932;25.548;2022-07-01T06:46:00;99066.38;;;35.14;48.57
3434;BME280;1730;41.932;25.548;2022-07-01T06:48:27;99065.53;;;35.36;47.01
3434;BME280;1730;41.932;25.548;2022-07-01T06:50:52;99064.66;;;34.38;49.45
3434;BME280;1730;41.932;25.548;2022-07-01T06:53:18;99063.13;;;33.69;51.26
3434;BME280;1730;41.932;25.548;2022-07-01T06:55:44;99059.56;;;33.63;52.64
3434;BME280;1730;41.932;25.548;2022-07-01T06:58:09;98982.16;;;32.90;54.99
3434;BME280;1730;41.932;25.548;2022-07-01T07:00:36;99058.44;;;33.37;55.17
3434;BME280;1730;41.932;25.548;2022-07-01T07:03:02;99057.28;;;33.38;54.46
3434;BME280;1730;41.932;25.548;2022-07-01T07:05:28;99055.16;;;33.02;55.18
3434;BME280;1730;41.932;25.548;2022-07-01T07:07:57;99042.66;;;32.49;57.71
3434;BME280;1730;41.932;25.548;2022-07-01T07:10:23;99055.94;;;32.01;59.16
3434;BME280;1730;41.932;25.548;2022-07-01T07:12:48;99053.53;;;31.94;59.87
3434;BME280;1730;41.932;25.548;2022-07-01T07:15:14;99057.50;;;32.12;61.57
3434;BME280;1730;41.932;25.548;2022-07-01T07:17:41;99070.44;;;32.22;52.01
3434;BME280;1730;41.932;25.548;2022-07-01T07:20:07;99069.72;;;32.86;50.77
3434;BME280;1730;41.932;25.548;2022-07-01T07:22:32;99063.50;;;32.89;57.25
3434;BME280;1730;41.932;25.548;2022-07-01T07:24:58;99016.09;;;32.51;53.01
3434;BME280;1730;41.932;25.548;2022-07-01T07:27:24;99063.25;;;32.34;63.11
3434;BME280;1730;41.932;25.548;2022-07-01T07:29:50;98982.78;;;31.85;63.16
3434;BME280;1730;41.932;25.548;2022-07-01T07:32:15;99046.28;;;32.31;58.84
3434;BME280;1730;41.932;25.548;2022-07-01T07:34:41;99064.37;;;32.71;63.10
3434;BME280;1730;41.932;25.548;2022-07-01T07:37:06;98940.31;;;32.07;63.66
3434;BME280;1730;41.932;25.548;2022-07-01T07:39:32;99070.50;;;32.54;63.14
3434;BME280;1730;41.932;25.548;2022-07-01T07:41:58;99058.72;;;32.57;66.66
3434;BME280;1730;41.932;25.548;2022-07-01T07:44:23;99025.63;;;32.96;61.55
3434;BME280;1730;41.932;25.548;2022-07-01T07:46:49;99056.25;;;32.55;64.43
3434;BME280;1730;41.932;25.548;2022-07-01T07:49:15;99066.31;;;32.38;65.98
3434;BME280;1730;41.932;25.548;2022-07-01T07:51:40;99067.22;;;32.84;66.13
3434;BME280;1730;41.932;25.548;2022-07-01T07:54:06;99063.28;;;32.85;65.81
3434;BME280;1730;41.932;25.548;2022-07-01T07:56:32;99062.47;;;32.15;69.74
3434;BME280;1730;41.932;25.548;2022-07-01T07:58:58;99057.94;;;33.02;59.24
3434;BME280;1730;41.932;25.548;2022-07-01T08:01:24;99064.41;;;32.84;63.05
3434;BME280;1730;41.932;25.548;2022-07-01T08:03:52;99057.16;;;32.83;63.78
3434;BME280;1730;41.932;25.548;2022-07-01T08:06:17;99067.94;;;33.22;61.63
3434;BME280;1730;41.932;25.548;2022-07-01T08:08:43;99061.38;;;32.99;60.16
3434;BME280;1730;41.932;25.548;2022-07-01T08:11:09;99072.00;;;32.97;60.79
3434;BME280;1730;41.932;25.548;2022-07-01T08:13:35;99024.13;;;32.72;58.53
3434;BME280;1730;41.932;25.548;2022-07-01T08:16:01;99058.06;;;32.46;59.84
3434;BME280;1730;41.932;25.548;2022-07-01T08:18:26;99057.84;;;31.82;62.78
3434;BME280;1730;41.932;25.548;2022-07-01T08:20:52;99058.41;;;32.58;61.25
3434;BME280;1730;41.932;25.548;2022-07-01T08:23:19;99066.59;;;32.17;62.22
3434;BME280;1730;41.932;25.548;2022-07-01T08:25:49;98980.37;;;31.97;62.44
3434;BME280;1730;41.932;25.548;2022-07-01T08:28:16;99056.03;;;32.14;63.39
3434;BME280;1730;41.932;25.548;2022-07-01T08:30:42;99054.44;;;32.27;61.18
3434;BME280;1730;41.932;25.548;2022-07-01T08:33:08;99059.19;;;32.27;67.26
3434;BME280;1730;41.932;25.548;2022-07-01T08:35:34;99055.97;;;32.38;58.42
3434;BME280;1730;41.932;25.548;2022-07-01T08:37:59;99051.25;;;32.52;62.41
3434;BME280;1730;41.932;25.548;2022-07-01T08:40:29;99057.22;;;32.46;66.40
3434;BME280;1730;41.932;25.548;2022-07-01T08:43:00;99046.34;;;32.44;61.66
3434;BME280;1730;41.932;25.548;2022-07-01T08:45:29;99049.28;;;32.72;63.34
3434;BME280;1730;41.932;25.548;2022-07-01T08:47:56;98954.22;;;32.12;58.74
3434;BME280;1730;41.932;25.548;2022-07-01T08:50:24;99053.66;;;32.91;64.16
3434;BME280;1730;41.932;25.548;2022-07-01T08:52:51;99051.94;;;32.95;63.01
3434;BME280;1730;41.932;25.548;2022-07-01T08:55:21;99045.38;;;33.19;62.58
3434;BME280;1730;41.932;25.548;2022-07-01T08:57:48;99046.50;;;33.18;61.83
3434;BME280;1730;41.932;25.548;2022-07-01T09:00:14;99015.47;;;32.54;64.96
3434;BME280;1730;41.932;25.548;2022-07-01T09:03:02;99049.97;;;33.09;62.88
3434;BME280;1730;41.932;25.548;2022-07-01T09:05:30;99042.59;;;33.00;59.97
3434;BME280;1730;41.932;25.548;2022-07-01T09:08:01;99044.41;;;32.63;58.90
3434;BME280;1730;41.932;25.548;2022-07-01T09:10:28;98874.00;;;31.66;56.05
3434;BME280;1730;41.932;25.548;2022-07-01T09:13:00;99040.53;;;32.92;56.12
3434;BME280;1730;41.932;25.548;2022-07-01T09:15:31;99039.97;;;33.36;55.59
3434;BME280;1730;41.932;25.548;2022-07-01T09:18:04;99040.31;;;33.21;50.68
3434;BME280;1730;41.932;25.548;2022-07-01T09:20:32;98952.69;;;32.19;51.03
3434;BME280;1730;41.932;25.548;2022-07-01T09:23:05;99038.75;;;33.42;54.76
3434;BME280;1730;41.932;25.548;2022-07-01T09:25:34;99042.19;;;33.39;52.87
3434;BME280;1730;41.932;25.548;2022-07-01T09:28:22;99038.78;;;33.69;53.30
3434;BME280;1730;41.932;25.548;2022-07-01T09:30:53;98999.44;;;33.88;51.83
3434;BME280;1730;41.932;25.548;2022-07-01T09:33:21;99025.37;;;33.52;47.59
3434;BME280;1730;41.932;25.548;2022-07-01T09:35:48;99034.59;;;33.80;48.59
3434;BME280;1730;41.932;25.548;2022-07-01T09:38:19;99005.44;;;33.95;47.68
3434;BME280;1730;41.932;25.548;2022-07-01T09:40:56;99030.78;;;33.76;46.19
3434;BME280;1730;41.932;25.548;2022-07-01T09:45:58;98973.72;;;33.23;45.76
3434;BME280;1730;41.932;25.548;2022-07-01T09:48:26;99046.00;;;33.84;43.56
3434;BME280;1730;41.932;25.548;2022-07-01T09:50:52;99027.97;;;33.63;43.51
3434;BME280;1730;41.932;25.548;2022-07-01T09:53:18;98952.91;;;33.29;42.49
3434;BME280;1730;41.932;25.548;2022-07-01T09:55:44;99023.00;;;33.73;41.30
3434;BME280;1730;41.932;25.548;2022-07-01T09:58:10;99023.13;;;33.68;41.59
3434;BME280;1730;41.932;25.548;2022-07-01T10:00:37;99015.22;;;33.70;42.17
3434;BME280;1730;41.932;25.548;2022-07-01T10:03:04;99014.22;;;34.02;42.04
3434;BME280;1730;41.932;25.548;2022-07-01T10:05:36;99035.28;;;34.00;41.90
3434;BME280;1730;41.932;25.548;2022-07-01T10:13:40;99017.22;;;33.70;42.32
3434;BME280;1730;41.932;25.548;2022-07-01T10:16:08;99012.78;;;34.05;43.37
3434;BME280;1730;41.932;25.548;2022-07-01T10:18:34;98992.97;;;34.01;44.27
3434;BME280;1730;41.932;25.548;2022-07-01T10:21:00;98999.94;;;34.39;44.94
3434;BME280;1730;41.932;25.548;2022-07-01T10:23:36;99002.78;;;34.48;42.89
3434;BME280;1730;41.932;25.548;2022-07-01T10:26:04;99014.00;;;34.12;42.83
3434;BME280;1730;41.932;25.548;2022-07-01T10:31:16;99007.63;;;34.34;43.23
3434;BME280;1730;41.932;25.548;2022-07-01T10:41:27;98985.78;;;34.22;41.52
3434;BME280;1730;41.932;25.548;2022-07-01T10:43:56;98987.75;;;34.44;41.44
3434;BME280;1730;41.932;25.548;2022-07-01T10:46:41;98921.28;;;33.91;39.78
3434;BME280;1730;41.932;25.548;2022-07-01T10:49:20;98863.53;;;33.10;41.58
3434;BME280;1730;41.932;25.548;2022-07-01T10:51:48;98990.28;;;34.32;40.74
3434;BME280;1730;41.932;25.548;2022-07-01T10:59:45;98982.00;;;34.05;40.08
3434;BME280;1730;41.932;25.548;2022-07-01T11:02:18;98981.00;;;34.23;40.19
3434;BME280;1730;41.932;25.548;2022-07-01T11:04:44;98654.66;;;31.89;39.33
3434;BME280;1730;41.932;25.548;2022-07-01T11:07:10;98787.00;;;32.43;39.88
3434;BME280;1730;41.932;25.548;2022-07-01T11:09:36;98899.03;;;33.37;40.22
3434;BME280;1730;41.932;25.548;2022-07-01T11:12:03;98818.56;;;33.34;39.88
3434;BME280;1730;41.932;25.548;2022-07-01T11:14:33;98954.94;;;34.67;38.88
3434;BME280;1730;41.932;25.548;2022-07-01T11:17:01;98945.28;;;34.73;38.16
3434;BME280;1730;41.932;25.548;2022-07-01T11:19:26;98944.94;;;35.05;37.07
3434;BME280;1730;41.932;25.548;2022-07-01T11:21:52;98953.91;;;35.24;38.13
3434;BME280;1730;41.932;25.548;2022-07-01T11:24:19;98945.38;;;34.99;37.71
3434;BME280;1730;41.932;25.548;2022-07-01T11:26:46;98951.34;;;34.97;37.67
3434;BME280;1730;41.932;25.548;2022-07-01T11:29:23;98946.06;;;35.04;37.96
3434;BME280;1730;41.932;25.548;2022-07-01T11:31:49;98947.22;;;35.51;37.54
3434;BME280;1730;41.932;25.548;2022-07-01T11:34:16;98940.87;;;35.28;37.34
3434;BME280;1730;41.932;25.548;2022-07-01T11:36:43;98958.94;;;35.45;36.94
3434;BME280;1730;41.932;25.548;2022-07-01T11:39:28;98955.84;;;35.72;36.30
3434;BME280;1730;41.932;25.548;2022-07-01T11:42:03;98926.87;;;34.89;37.09
3434;BME280;1730;41.932;25.548;2022-07-01T11:44:37;98936.47;;;35.36;38.31
3434;BME280;1730;41.932;25.548;2022-07-01T11:47:22;98935.78;;;35.22;38.20
3434;BME280;1730;41.932;25.548;2022-07-01T11:49:49;98948.13;;;34.59;36.65
3434;BME280;1730;41.932;25.548;2022-07-01T11:52:15;98597.25;;;32.74;37.57
3434;BME280;1730;41.932;25.548;2022-07-01T11:54:44;98936.59;;;35.22;37.26
3434;BME280;1730;41.932;25.548;2022-07-01T11:57:11;98929.69;;;35.37;38.01
3434;BME280;1730;41.932;25.548;2022-07-01T11:59:37;98931.03;;;34.92;38.27
3434;BME280;1730;41.932;25.548;2022-07-01T12:02:04;98882.34;;;34.48;38.87
3434;BME280;1730;41.932;25.548;2022-07-01T12:04:30;98852.56;;;34.30;38.26
3434;BME280;1730;41.932;25.548;2022-07-01T12:06:57;98924.97;;;34.45;38.85
3434;BME280;1730;41.932;25.548;2022-07-01T12:09:23;98838.94;;;34.15;40.03
3434;BME280;1730;41.932;25.548;2022-07-01T12:11:51;98915.97;;;34.79;38.88
3434;BME280;1730;41.932;25.548;2022-07-01T12:14:32;98823.62;;;34.43;38.26
3434;BME280;1730;41.932;25.548;2022-07-01T12:17:00;98928.94;;;35.06;39.18
3434;BME280;1730;41.932;25.548;2022-07-01T12:19:40;98832.78;;;34.57;39.23
3434;BME280;1730;41.932;25.548;2022-07-01T12:22:13;98905.81;;;35.00;39.32
3434;BME280;1730;41.932;25.548;2022-07-01T12:24:39;98915.53;;;35.51;39.02
3434;BME280;1730;41.932;25.548;2022-07-01T12:27:06;98915.34;;;35.30;38.97
3434;BME280;1730;41.932;25.548;2022-07-01T12:32:22;98910.25;;;34.62;39.91
3434;BME280;1730;41.932;25.548;2022-07-01T12:35:06;98908.25;;;34.09;40.39
3434;BME280;1730;41.932;25.548;2022-07-01T12:37:52;98913.34;;;34.29;40.90
3434;BME280;1730;41.932;25.548;2022-07-01T12:40:23;98913.16;;;34.48;41.57
3434;BME280;1730;41.932;25.548;2022-07-01T12:42:49;98945.62;;;34.27;43.42
3434;BME280;1730;41.932;25.548;2022-07-01T12:45:17;98911.53;;;33.89;44.49
3434;BME280;1730;41.932;25.548;2022-07-01T12:47:49;98909.44;;;33.59;45.65
3434;BME280;1730;41.932;25.548;2022-07-01T12:53:08;98931.50;;;33.60;49.13
3434;BME280;1730;41.932;25.548;2022-07-01T12:55:55;98882.09;;;33.20;49.62
3434;BME280;1730;41.932;25.548;2022-07-01T12:58:26;98917.56;;;32.65;43.80
3434;BME280;1730;41.932;25.548;2022-07-01T13:00:56;98833.75;;;32.78;51.56
3434;BME280;1730;41.932;25.548;2022-07-01T13:03:25;98756.91;;;31.80;58.57
3434;BME280;1730;41.932;25.548;2022-07-01T13:05:53;98928.94;;;31.85;80.86
3434;BME280;1730;41.932;25.548;2022-07-01T13:08:19;98927.56;;;31.45;100.00
3434;BME280;1730;41.932;25.548;2022-07-01T13:10:46;98919.00;;;31.17;100.00
3434;BME280;1730;41.932;25.548;2022-07-01T13:13:13;98932.44;;;30.86;100.00
3434;BME280;1730;41.932;25.548;2022-07-01T13:15:39;98898.63;;;30.74;100.00
3434;BME280;1730;41.932;25.548;2022-07-01T13:18:05;98984.25;;;30.87;100.00
3434;BME280;1730;41.932;25.548;2022-07-01T13:20:31;98947.53;;;31.09;100.00
3434;BME280;1730;41.932;25.548;2022-07-01T13:22:57;98982.66;;;31.29;100.00
3434;BME280;1730;41.932;25.548;2022-07-01T13:25:22;98953.62;;;31.11;100.00
3434;BME280;1730;41.932;25.548;2022-07-01T13:27:48;98867.22;;;30.45;100.00
3434;BME280;1730;41.932;25.548;2022-07-01T13:30:14;98931.47;;;31.01;100.00
3434;BME280;1730;41.932;25.548;2022-07-01T13:32:41;98937.09;;;31.62;100.00
3434;BME280;1730;41.932;25.548;2022-07-01T13:35:08;98922.53;;;31.84;100.00
3434;BME280;1730;41.932;25.548;2022-07-01T13:37:34;98949.47;;;31.75;100.00
3434;BME280;1730;41.932;25.548;2022-07-01T13:39:59;98792.41;;;31.05;100.00
3434;BME280;1730;41.932;25.548;2022-07-01T13:42:25;98889.84;;;32.03;100.00